Time;durP1;ratioP1;P1;durP2;ratioP2;P2;SDS_P1;SDS_P2;PMS_P1;PMS_P2;Temp;Humidity;BMP_temperature;BMP_pressure;BME280_temperature;BME280_humidity;BME280_pressure;Samples;Min_cycle;Max_cycle;Signal;HPM_P1;HPM_P2
2021/12/17 00:04:36;;;;;;;9.93;5.50;;;;;;;3.99;100.00;99909.41;4452307;32;20175;-77
2021/12/17 00:07:06;;;;;;;7.50;4.70;;;;;;;3.98;100.00;99892.19;4452236;32;20128;-77
2021/12/17 00:09:33;;;;;;;7.70;4.68;;;;;;;3.96;100.00;99881.03;4452194;32;20133;-77
2021/12/17 00:12:00;;;;;;;7.37;4.05;;;;;;;3.99;100.00;99875.69;4452317;32;20135;-77
2021/12/17 00:14:29;;;;;;;11.30;5.62;;;;;;;3.99;100.00;99922.38;4452455;32;20136;-77
2021/12/17 00:17:01;;;;;;;7.43;4.28;;;;;;;3.88;100.00;99893.50;4452289;32;20097;-77
2021/12/17 00:50:19;;;;;;;6.55;3.97;;;;;;;3.90;96.05;99961.66;4486089;31;20142;-77
2021/12/17 00:52:46;;;;;;;10.23;4.43;;;;;;;3.97;95.22;99968.28;4485589;31;20518;-77
2021/12/17 00:55:14;;;;;;;8.93;4.28;;;;;;;3.81;96.15;99951.69;4485542;31;20080;-77
2021/12/17 00:57:44;;;;;;;7.28;3.78;;;;;;;3.73;96.23;99967.56;4485365;31;20156;-77
2021/12/17 01:00:22;;;;;;;6.85;3.70;;;;;;;3.72;96.12;99960.69;4485637;31;20096;-77
2021/12/17 01:02:51;;;;;;;7.60;3.92;;;;;;;3.67;96.27;99949.69;4485842;31;20092;-77
2021/12/17 01:05:27;;;;;;;7.97;4.32;;;;;;;3.61;96.83;99945.59;4485816;31;20465;-77
2021/12/17 01:07:56;;;;;;;11.50;4.85;;;;;;;3.46;97.34;99925.50;4485414;31;20147;-77
2021/12/17 01:10:37;;;;;;;5.43;3.25;;;;;;;3.53;97.05;99911.41;4485511;32;20151;-77
2021/12/17 01:13:10;;;;;;;5.00;3.22;;;;;;;3.60;96.09;99915.38;4485727;31;20167;-77
2021/12/17 01:15:39;;;;;;;7.65;3.42;;;;;;;3.70;95.25;99874.41;4485644;31;20095;-77
2021/12/17 01:18:12;;;;;;;8.00;4.00;;;;;;;3.55;95.80;99862.94;4485721;31;20157;-77
2021/12/17 01:37:38;;;;;;;9.52;3.92;;;;;;;3.30;96.06;99904.56;4485467;32;20111;-77
2021/12/17 01:42:35;;;;;;;6.25;3.42;;;;;;;3.24;95.63;99908.25;4450774;32;20327;-77
2021/12/17 01:45:04;;;;;;;6.28;3.12;;;;;;;3.17;95.52;99927.53;4451650;32;20287;-77
2021/12/17 01:47:31;;;;;;;7.85;3.83;;;;;;;3.19;95.07;99907.59;4451266;32;20311;-77
2021/12/17 02:01:05;;;;;;;6.85;3.40;;;;;;;3.40;91.10;99879.13;4451721;32;20721;-77
2021/12/17 02:03:33;;;;;;;5.05;2.60;;;;;;;3.36;91.49;99883.56;4438825;32;20097;-77
2021/12/17 02:06:03;;;;;;;6.75;3.58;;;;;;;3.30;91.24;99895.06;4451455;32;20131;-77
2021/12/17 02:08:31;;;;;;;6.32;2.42;;;;;;;3.29;90.78;99888.19;4451225;32;20531;-77
2021/12/17 02:32:55;;;;;;;6.10;2.30;;;;;;;3.46;85.77;99820.13;4451348;32;20121;-77
2021/12/17 02:35:41;;;;;;;5.12;1.77;;;;;;;3.47;85.70;99816.63;4451206;32;20593;-77
2021/12/17 02:38:11;;;;;;;6.53;2.33;;;;;;;3.49;85.85;99801.03;4451108;32;20201;-77
2021/12/17 02:46:12;;;;;;;7.75;2.37;;;;;;;3.45;86.32;99840.91;4451213;32;20196;-77
2021/12/17 02:48:41;;;;;;;4.87;2.92;;;;;;;3.42;86.61;99846.22;4450874;32;20852;-77
2021/12/17 02:51:09;;;;;;;3.55;1.92;;;;;;;3.46;86.37;99845.19;4451049;32;20097;-77
2021/12/17 02:53:37;;;;;;;8.52;2.72;;;;;;;3.52;86.36;99847.53;4450381;32;20174;-77
2021/12/17 02:56:08;;;;;;;4.25;2.80;;;;;;;3.51;86.26;99864.81;4450938;32;20113;-77
2021/12/17 02:58:37;;;;;;;7.78;3.35;;;;;;;3.44;86.84;99849.59;4450777;32;20422;-77
2021/12/17 03:01:07;;;;;;;5.28;2.40;;;;;;;3.42;87.24;99835.88;4461239;32;20112;-77
2021/12/17 03:03:38;;;;;;;6.75;2.78;;;;;;;3.47;87.41;99837.34;4484458;31;20077;-77
2021/12/17 03:06:05;;;;;;;5.70;2.90;;;;;;;3.47;87.93;99844.28;4484428;31;20096;-77
2021/12/17 03:08:32;;;;;;;7.65;3.10;;;;;;;3.46;88.57;99840.84;4484642;31;20153;-77
2021/12/17 03:11:01;;;;;;;6.90;3.40;;;;;;;3.35;90.41;99835.28;4484326;31;20100;-77
2021/12/17 03:13:31;;;;;;;10.43;4.00;;;;;;;3.26;92.33;99846.88;4484398;31;20171;-77
2021/12/17 03:24:02;;;;;;;11.80;5.72;;;;;;;3.10;98.56;99841.47;4450680;32;20576;-77
2021/12/17 03:26:30;;;;;;;10.10;5.45;;;;;;;3.09;99.32;99834.63;4450763;32;20132;-77
2021/12/17 03:29:02;;;;;;;11.98;5.68;;;;;;;3.04;100.00;99844.31;4457162;32;20112;-77
2021/12/17 03:31:30;;;;;;;15.63;6.50;;;;;;;3.07;100.00;99867.50;4453432;32;20549;-77
2021/12/17 03:34:19;;;;;;;15.80;6.47;;;;;;;3.07;100.00;99879.59;4465779;32;20104;-77
2021/12/17 03:36:54;;;;;;;14.50;7.05;;;;;;;3.11;100.00;99876.00;4466107;32;20724;-77
2021/12/17 03:39:23;;;;;;;12.37;6.03;;;;;;;3.12;100.00;99882.84;4466159;32;20835;-77
2021/12/17 03:41:52;;;;;;;12.15;6.43;;;;;;;3.14;100.00;99863.75;4465881;32;20089;-77
2021/12/17 03:44:21;;;;;;;12.95;6.72;;;;;;;3.13;100.00;99869.00;4466082;32;20559;-77
2021/12/17 03:46:51;;;;;;;13.88;7.47;;;;;;;3.09;100.00;99886.41;4465974;32;20189;-77
2021/12/17 03:49:19;;;;;;;16.98;7.47;;;;;;;3.13;100.00;99869.81;4465649;32;20163;-77
2021/12/17 03:51:53;;;;;;;15.57;6.85;;;;;;;3.11;100.00;99865.63;4465985;32;20947;-77
2021/12/17 03:54:21;;;;;;;14.98;6.37;;;;;;;3.05;100.00;99878.84;4465676;32;20106;-77
2021/12/17 03:56:48;;;;;;;15.20;5.18;;;;;;;3.10;100.00;99863.94;4480985;32;20104;-77
2021/12/17 03:59:16;;;;;;;14.23;5.80;;;;;;;3.10;99.59;99838.06;4483540;31;20096;-77
2021/12/17 04:01:44;;;;;;;13.80;6.57;;;;;;;3.10;98.82;99851.84;4483756;31;20119;-77
2021/12/17 04:04:11;;;;;;;15.60;6.30;;;;;;;3.06;98.77;99839.06;4484229;32;20450;-77
2021/12/17 04:06:39;;;;;;;13.00;5.97;;;;;;;2.97;99.11;99846.31;4486076;31;20139;-77
2021/12/17 04:09:09;;;;;;;11.70;4.93;;;;;;;2.99;98.61;99849.69;4486055;31;20100;-77
2021/12/17 04:11:38;;;;;;;11.12;5.45;;;;;;;2.97;98.50;99866.19;4486020;31;20092;-77
2021/12/17 04:14:09;;;;;;;10.15;5.78;;;;;;;2.96;98.15;99857.56;4486069;31;20084;-77
2021/12/17 04:16:38;;;;;;;11.30;5.45;;;;;;;2.96;97.73;99862.75;4486246;31;20144;-77
2021/12/17 04:19:05;;;;;;;10.77;5.62;;;;;;;2.94;97.74;99866.31;4486065;31;20092;-77
2021/12/17 04:21:32;;;;;;;13.82;6.20;;;;;;;2.91;97.81;99859.53;4486039;31;20525;-77
2021/12/17 04:24:01;;;;;;;12.75;5.85;;;;;;;2.90;97.79;99875.94;4501355;31;20092;-77
2021/12/17 04:26:28;;;;;;;14.38;6.32;;;;;;;2.95;97.38;99884.38;4501949;31;20512;-77
2021/12/17 04:28:56;;;;;;;12.00;5.85;;;;;;;2.91;97.48;99887.16;4501605;31;20083;-77
2021/12/17 04:31:26;;;;;;;12.85;6.37;;;;;;;2.90;97.25;99881.13;4501503;31;20104;-77
2021/12/17 04:33:54;;;;;;;12.02;5.37;;;;;;;2.90;97.06;99914.75;4501763;31;20091;-77
2021/12/17 04:36:27;;;;;;;13.70;5.25;;;;;;;2.91;96.92;99913.88;4501793;31;20097;-77
2021/12/17 04:38:56;;;;;;;12.50;5.62;;;;;;;2.95;96.68;99918.03;4501544;31;20411;-77
2021/12/17 04:57:32;;;;;;;14.82;6.32;;;;;;;2.84;97.85;99922.78;4501614;31;20096;-77
2021/12/17 05:00:05;;;;;;;11.52;6.15;;;;;;;2.79;98.23;99938.47;4501510;31;20091;-77
2021/12/17 05:02:37;;;;;;;12.48;5.28;;;;;;;2.82;98.35;99940.09;4501393;31;20076;-77
2021/12/17 05:05:08;;;;;;;10.10;5.62;;;;;;;2.79;98.53;99937.66;4500891;31;20108;-77
2021/12/17 05:07:38;;;;;;;13.20;5.45;;;;;;;2.82;98.50;99924.59;4501353;31;20171;-77
2021/12/17 05:18:28;;;;;;;12.93;6.22;;;;;;;2.72;99.20;99907.72;4485893;32;20418;-77
2021/12/17 05:21:01;;;;;;;12.55;5.15;;;;;;;2.64;99.74;99911.44;4486618;31;20149;-77
2021/12/17 05:23:34;;;;;;;12.55;4.43;;;;;;;2.54;100.00;99901.50;4501318;31;20110;-77
2021/12/17 05:26:04;;;;;;;14.73;5.45;;;;;;;2.54;100.00;99899.75;4501383;31;20085;-78
2021/12/17 05:28:32;;;;;;;11.15;4.87;;;;;;;2.45;100.00;99900.09;4501366;31;20176;-77
2021/12/17 05:31:00;;;;;;;13.57;6.35;;;;;;;2.42;100.00;99898.50;4501347;31;20091;-77
2021/12/17 05:33:28;;;;;;;13.32;5.68;;;;;;;2.34;100.00;99894.50;4501146;31;20085;-78
2021/12/17 05:35:56;;;;;;;12.30;6.28;;;;;;;2.35;100.00;99893.56;4501382;31;20425;-78
2021/12/17 05:38:25;;;;;;;7.18;4.57;;;;;;;2.26;100.00;99902.53;4500818;31;20160;-78
2021/12/17 05:40:54;;;;;;;8.27;5.10;;;;;;;2.34;100.00;99897.09;4501162;31;20104;-78
2021/12/17 05:43:22;;;;;;;11.00;5.57;;;;;;;2.35;100.00;99888.41;4501001;31;20100;-77
2021/12/17 05:48:21;;;;;;;12.73;5.12;;;;;;;2.29;100.00;99892.91;4499336;31;20153;-79
2021/12/17 05:50:51;;;;;;;13.45;5.87;;;;;;;2.31;100.00;99867.00;4498679;31;20096;-79
2021/12/17 05:53:18;;;;;;;9.82;4.30;;;;;;;2.25;100.00;99864.66;4499261;31;20583;-78
2021/12/17 05:55:46;;;;;;;10.23;5.25;;;;;;;2.24;100.00;99871.56;4500251;31;20359;-79
2021/12/17 05:58:14;;;;;;;15.40;5.80;;;;;;;2.17;100.00;99884.78;4501161;31;20118;-79
2021/12/17 06:00:42;;;;;;;8.75;4.95;;;;;;;2.18;100.00;99874.38;4501055;31;20103;-79
2021/12/17 06:03:17;;;;;;;8.43;4.97;;;;;;;2.16;100.00;99889.09;4500479;31;20092;-78
2021/12/17 06:05:45;;;;;;;10.93;4.65;;;;;;;2.14;100.00;99885.72;4492153;31;20455;-78
2021/12/17 06:08:12;;;;;;;8.45;4.30;;;;;;;2.15;100.00;99881.41;4489705;31;20390;-79
2021/12/17 06:10:40;;;;;;;11.05;5.40;;;;;;;2.16;100.00;99888.25;4495771;31;20104;-79
2021/12/17 06:13:08;;;;;;;12.32;6.30;;;;;;;2.18;100.00;99902.81;4500635;31;20517;-78
2021/12/17 06:15:35;;;;;;;14.57;5.10;;;;;;;2.16;100.00;99899.44;4500790;31;20138;-78
2021/12/17 06:18:03;;;;;;;6.78;4.37;;;;;;;2.14;100.00;99919.34;4501014;31;20172;-78
2021/12/17 06:20:30;;;;;;;7.40;4.62;;;;;;;2.13;100.00;99925.41;4500737;31;20545;-78
2021/12/17 06:22:58;;;;;;;10.30;5.35;;;;;;;2.08;100.00;99917.81;4500772;31;20087;-78
2021/12/17 06:25:25;;;;;;;8.93;3.87;;;;;;;2.07;100.00;99917.87;4488314;31;20145;-78
2021/12/17 06:27:55;;;;;;;9.63;5.30;;;;;;;2.04;100.00;99923.16;4480137;31;20112;-77
2021/12/17 06:30:23;;;;;;;8.40;4.40;;;;;;;2.04;100.00;99936.06;4496543;31;20165;-77
2021/12/17 06:32:50;;;;;;;7.75;5.00;;;;;;;2.04;100.00;99926.56;4498977;31;20100;-78
2021/12/17 06:35:17;;;;;;;9.38;4.97;;;;;;;2.01;100.00;99918.91;4500251;31;20454;-79
2021/12/17 06:37:45;;;;;;;6.07;3.80;;;;;;;2.01;100.00;99911.16;4499786;31;20108;-78
2021/12/17 06:40:13;;;;;;;7.68;4.65;;;;;;;1.94;100.00;99920.88;4500215;31;20091;-77
2021/12/17 06:42:40;;;;;;;9.40;4.43;;;;;;;1.90;100.00;99919.31;4499542;31;20558;-79
2021/12/17 06:45:19;;;;;;;12.85;4.35;;;;;;;1.86;100.00;99925.50;4498089;31;20446;-77
2021/12/17 06:47:54;;;;;;;8.95;4.03;;;;;;;1.87;100.00;99924.56;4492391;31;20092;-76
2021/12/17 07:18:24;;;;;;;13.80;5.75;;;;;;;2.02;100.00;99943.88;4464395;32;20108;-75
2021/12/17 07:34:03;;;;;;;13.45;5.30;;;;;;;2.31;98.61;99968.69;4464581;32;20421;-76
2021/12/17 07:36:56;;;;;;;8.40;5.35;;;;;;;2.31;98.84;99970.44;4461430;32;20123;-76
2021/12/17 07:39:24;;;;;;;14.90;4.82;;;;;;;2.36;98.58;99983.19;4461474;32;20176;-74
2021/12/17 07:41:52;;;;;;;5.10;3.40;;;;;;;2.46;97.79;100000.06;4465908;32;20147;-74
2021/12/17 07:44:19;;;;;;;11.75;5.43;;;;;;;2.46;97.72;100000.06;4465821;32;20164;-75
2021/12/17 07:46:47;;;;;;;12.55;6.00;;;;;;;2.40;98.38;100000.31;4484875;31;20174;-74
2021/12/17 07:49:14;;;;;;;8.90;4.62;;;;;;;2.41;98.30;100000.25;4498527;31;20127;-74
2021/12/17 07:51:42;;;;;;;9.98;4.55;;;;;;;2.45;98.31;99998.38;4497597;31;20100;-76
2021/12/17 07:54:09;;;;;;;10.25;4.85;;;;;;;2.56;98.01;99995.41;4498264;31;20115;-75
2021/12/17 07:56:38;;;;;;;5.22;3.87;;;;;;;2.55;97.62;100001.50;4500374;31;20389;-74
2021/12/17 07:59:09;;;;;;;11.88;5.28;;;;;;;2.55;97.51;100010.09;4500069;31;20909;-75
2021/12/17 08:01:37;;;;;;;11.35;4.60;;;;;;;2.63;97.31;100021.03;4500766;31;20492;-75
2021/12/17 08:04:06;;;;;;;12.50;4.53;;;;;;;2.65;97.10;100006.28;4499441;31;20163;-76
2021/12/17 08:06:36;;;;;;;8.45;4.57;;;;;;;2.72;96.89;100004.28;4499296;31;20171;-75
2021/12/17 08:09:05;;;;;;;7.70;4.90;;;;;;;2.75;96.32;99990.41;4496862;31;20102;-74
2021/12/17 08:11:38;;;;;;;18.73;5.22;;;;;;;2.76;96.48;99990.34;4499584;31;20130;-76
2021/12/17 08:14:13;;;;;;;7.87;4.12;;;;;;;2.73;96.66;99985.28;4495951;31;20958;-74
2021/12/17 08:16:54;;;;;;;9.40;4.80;;;;;;;2.74;96.60;100024.94;4497538;31;20502;-74
2021/12/17 08:25:09;;;;;;;9.70;4.62;;;;;;;2.86;96.47;99990.81;4485062;31;20468;-75
2021/12/17 08:32:43;;;;;;;14.98;5.90;;;;;;;2.89;96.32;99993.31;4493608;31;20099;-72
2021/12/17 08:35:11;;;;;;;15.75;6.25;;;;;;;3.03;95.24;99995.38;4489113;31;20108;-71
2021/12/17 08:37:39;;;;;;;14.02;5.28;;;;;;;2.98;94.92;100005.06;4498393;31;20122;-73
2021/12/17 08:40:08;;;;;;;10.35;5.03;;;;;;;3.02;96.13;100004.88;4490838;31;20209;-73
2021/12/17 08:42:37;;;;;;;9.38;5.62;;;;;;;3.11;95.52;100013.22;4483377;31;20122;-73
2021/12/17 08:45:07;;;;;;;7.47;4.45;;;;;;;3.03;95.08;100010.91;4500163;31;20099;-74
2021/12/17 08:47:36;;;;;;;9.10;4.20;;;;;;;3.10;94.89;99996.81;4496746;31;20122;-73
2021/12/17 08:50:07;;;;;;;9.65;5.00;;;;;;;3.18;95.23;100009.50;4499609;31;20485;-75
2021/12/17 08:52:34;;;;;;;9.25;3.97;;;;;;;3.28;95.04;100008.22;4500346;31;20092;-74
2021/12/17 08:55:03;;;;;;;12.48;4.47;;;;;;;3.35;94.32;100016.59;4500577;31;20111;-73
2021/12/17 08:57:32;;;;;;;16.98;5.62;;;;;;;3.36;94.19;100019.13;4493064;31;20097;-74
2021/12/17 09:00:04;;;;;;;7.45;4.15;;;;;;;3.41;94.16;100005.12;4494848;31;20149;-75
2021/12/17 09:02:35;;;;;;;12.88;4.43;;;;;;;3.42;93.58;100005.06;4498229;31;20088;-75
2021/12/17 09:05:08;;;;;;;9.50;3.60;;;;;;;3.48;93.17;100001.41;4498623;31;20191;-75
2021/12/17 09:07:36;;;;;;;9.02;4.00;;;;;;;3.57;92.21;99998.44;4496545;31;20410;-74
2021/12/17 09:10:07;;;;;;;7.60;3.90;;;;;;;3.58;91.81;100017.44;4499563;31;20535;-73
2021/12/17 09:12:36;;;;;;;15.55;4.97;;;;;;;3.68;91.60;100026.50;4492790;31;20100;-74
2021/12/17 09:15:04;;;;;;;9.77;4.40;;;;;;;3.66;90.37;100016.19;4499575;31;20164;-73
2021/12/17 09:17:35;;;;;;;9.55;4.28;;;;;;;3.79;90.69;100013.13;4499448;31;20099;-72
2021/12/17 09:20:06;;;;;;;8.52;3.83;;;;;;;3.77;90.31;100001.94;4500295;31;20098;-73
2021/12/17 09:22:33;;;;;;;11.95;4.28;;;;;;;3.85;89.32;100018.06;4496621;31;20180;-74
2021/12/17 09:25:01;;;;;;;12.30;5.18;;;;;;;3.93;89.61;100018.56;4497740;31;20157;-73
2021/12/17 09:27:30;;;;;;;10.30;4.62;;;;;;;4.12;89.47;100012.59;4499716;31;20167;-73
2021/12/17 09:29:58;;;;;;;11.10;4.85;;;;;;;4.06;89.05;100009.38;4499974;31;20457;-75
2021/12/17 09:32:25;;;;;;;6.60;4.25;;;;;;;4.20;90.57;100010.53;4500157;31;20099;-74
2021/12/17 09:34:53;;;;;;;8.77;4.05;;;;;;;4.37;88.91;99991.63;4499422;31;20515;-74
2021/12/17 09:37:20;;;;;;;10.70;4.18;;;;;;;4.30;88.46;99988.47;4499482;31;20096;-74
2021/12/17 09:39:47;;;;;;;13.77;4.65;;;;;;;4.25;88.38;99985.22;4499910;31;20092;-73
2021/12/17 09:42:16;;;;;;;8.02;3.58;;;;;;;4.32;88.18;99983.22;4499016;31;20115;-75
2021/12/17 09:44:43;;;;;;;13.35;4.53;;;;;;;4.39;88.54;99977.69;4499565;31;20101;-75
2021/12/17 09:47:10;;;;;;;7.20;3.53;;;;;;;4.46;88.52;99985.22;4498561;31;20517;-73
2021/12/17 09:49:38;;;;;;;7.60;3.87;;;;;;;4.53;86.27;99971.88;4497234;31;79593;-73
2021/12/17 09:52:06;;;;;;;5.50;3.62;;;;;;;4.40;85.70;99979.34;4494073;31;20104;-72
2021/12/17 09:54:33;;;;;;;7.68;3.62;;;;;;;4.47;85.97;99976.50;4499430;31;20575;-72
2021/12/17 09:57:00;;;;;;;9.63;3.55;;;;;;;4.52;86.03;99969.34;4499317;31;20126;-73
2021/12/17 09:59:27;;;;;;;8.65;3.65;;;;;;;4.58;85.76;99985.47;4498361;31;20083;-73
2021/12/17 10:01:54;;;;;;;5.28;2.92;;;;;;;4.67;84.61;99973.84;4497904;31;20390;-73
2021/12/17 10:04:27;;;;;;;7.62;3.12;;;;;;;4.61;83.59;99987.09;4500081;31;20103;-73
2021/12/17 10:07:19;;;;;;;5.18;3.22;;;;;;;4.72;84.04;99987.44;4499124;31;20084;-74
2021/12/17 10:10:08;;;;;;;5.72;2.83;;;;;;;4.76;83.14;99986.41;4499653;31;20083;-74
2021/12/17 10:12:37;;;;;;;8.43;2.62;;;;;;;4.77;82.46;100011.47;4492413;31;20088;-74
2021/12/17 10:15:08;;;;;;;5.90;2.78;;;;;;;4.78;82.28;99999.31;4500090;31;20171;-76
2021/12/17 10:17:36;;;;;;;4.20;2.25;;;;;;;4.93;81.88;99988.22;4499709;31;20114;-74
2021/12/17 10:20:06;;;;;;;8.20;2.42;;;;;;;5.05;81.38;99985.97;4499435;31;20130;-74
2021/12/17 10:22:34;;;;;;;5.50;3.53;;;;;;;5.10;80.57;99981.41;4498056;31;20173;-74
2021/12/17 10:25:08;;;;;;;7.47;2.92;;;;;;;5.19;81.98;99982.72;4498563;31;20124;-73
2021/12/17 10:27:39;;;;;;;5.70;2.58;;;;;;;5.20;80.23;100007.81;4498648;31;20212;-73
2021/12/17 10:30:15;;;;;;;6.32;2.67;;;;;;;5.15;80.05;99988.06;4497181;31;22189;-74
2021/12/17 10:32:45;;;;;;;6.53;3.20;;;;;;;5.23;79.98;99971.28;4496333;31;20176;-74
2021/12/17 10:35:13;;;;;;;5.40;2.85;;;;;;;5.16;79.16;99962.94;4498516;31;20107;-75
2021/12/17 10:37:49;;;;;;;6.30;2.37;;;;;;;5.17;79.06;99962.03;4498211;31;20092;-75
2021/12/17 10:40:31;;;;;;;5.05;2.20;;;;;;;5.31;79.69;99959.62;4500024;31;20159;-74
2021/12/17 10:43:26;;;;;;;4.50;2.80;;;;;;;5.25;79.02;99954.69;4499662;31;20096;-75
2021/12/17 10:48:47;;;;;;;6.47;2.45;;;;;;;5.60;79.10;99935.69;4498450;31;20124;-75
2021/12/17 10:54:11;;;;;;;5.32;2.62;;;;;;;5.29;79.34;99935.44;4489830;31;20115;-74
2021/12/17 10:56:41;;;;;;;8.02;2.67;;;;;;;5.30;78.45;99941.50;4498516;31;20092;-75
2021/12/17 10:59:11;;;;;;;5.43;3.42;;;;;;;5.26;78.91;99948.59;4498693;31;20484;-74
2021/12/17 11:01:44;;;;;;;7.85;2.62;;;;;;;5.29;79.56;99929.41;4499925;31;20088;-72
2021/12/17 11:04:20;;;;;;;12.18;2.65;;;;;;;5.21;79.29;99940.19;4499897;31;20116;-72
2021/12/17 11:06:52;;;;;;;4.30;2.78;;;;;;;5.22;78.32;99941.03;4498470;31;20114;-72
2021/12/17 11:09:39;;;;;;;13.00;4.00;;;;;;;5.24;78.07;99931.38;4497792;31;20088;-72
2021/12/17 11:12:34;;;;;;;6.90;2.45;;;;;;;5.29;77.22;99945.84;4497937;31;20080;-73
2021/12/17 11:15:18;;;;;;;4.75;2.58;;;;;;;5.32;77.20;99937.06;4500197;31;20474;-72
2021/12/17 11:17:57;;;;;;;11.43;2.85;;;;;;;5.37;76.88;99927.28;4499705;31;20126;-73
2021/12/17 11:20:28;;;;;;;4.53;2.08;;;;;;;5.41;76.59;99908.03;4497482;31;20114;-74
2021/12/17 11:22:57;;;;;;;7.53;2.12;;;;;;;5.32;75.79;99929.28;4496774;31;20142;-73
2021/12/17 11:25:24;;;;;;;11.30;3.35;;;;;;;5.37;76.41;99916.87;4489870;31;20156;-75
2021/12/17 11:27:52;;;;;;;5.80;2.70;;;;;;;5.50;77.26;99922.31;4499125;31;20103;-75
2021/12/17 11:30:25;;;;;;;9.90;2.78;;;;;;;5.45;76.43;99914.75;4490304;31;20148;-75
2021/12/17 11:32:53;;;;;;;5.37;3.00;;;;;;;5.32;76.76;99916.28;4500464;31;20092;-75
2021/12/17 11:35:25;;;;;;;5.60;2.33;;;;;;;5.44;76.96;99920.88;4500655;31;20088;-74
2021/12/17 11:37:56;;;;;;;4.68;2.33;;;;;;;5.44;76.41;99923.47;4498635;31;20117;-74
2021/12/17 11:40:43;;;;;;;8.52;3.08;;;;;;;5.47;76.70;99894.72;4491380;31;20099;-73
2021/12/17 11:43:33;;;;;;;8.35;2.47;;;;;;;5.43;76.90;99941.72;4500145;31;20114;-73
2021/12/17 11:46:04;;;;;;;14.60;2.28;;;;;;;5.42;76.25;99920.13;4497577;31;20100;-74
2021/12/17 11:48:34;;;;;;;4.35;2.47;;;;;;;5.33;76.24;99905.81;4497183;31;20148;-73
2021/12/17 11:51:07;;;;;;;6.22;2.42;;;;;;;5.33;75.66;99929.19;4499330;31;20103;-74
2021/12/17 11:53:41;;;;;;;12.85;2.62;;;;;;;5.32;75.57;99904.13;4500556;31;20084;-74
2021/12/17 11:56:08;;;;;;;5.75;2.62;;;;;;;5.40;75.32;99963.50;4497363;31;20100;-75
2021/12/17 11:58:43;;;;;;;6.22;2.78;;;;;;;5.38;76.09;99908.19;4500061;31;20088;-77
2021/12/17 12:01:10;;;;;;;4.18;1.75;;;;;;;5.48;76.07;99929.34;4500421;31;20091;-75
2021/12/17 12:03:38;;;;;;;7.78;2.60;;;;;;;5.46;75.01;99937.22;4499071;31;20127;-74
2021/12/17 12:06:05;;;;;;;3.65;1.48;;;;;;;5.54;74.92;99939.47;4499987;31;20149;-75
2021/12/17 12:11:18;;;;;;;7.35;2.83;;;;;;;5.51;75.06;99931.78;4500552;31;20092;-76
2021/12/17 12:13:50;;;;;;;7.43;2.47;;;;;;;5.51;75.16;99922.25;4499293;31;20084;-74
2021/12/17 12:16:20;;;;;;;8.38;2.17;;;;;;;5.61;74.76;99919.19;4500594;31;20779;-75
2021/12/17 12:18:55;;;;;;;4.12;2.42;;;;;;;5.54;75.21;99917.81;4500947;31;20177;-74
2021/12/17 12:21:24;;;;;;;14.40;3.78;;;;;;;5.57;75.07;99912.44;4495046;31;20699;-73
2021/12/17 12:24:17;;;;;;;6.30;2.45;;;;;;;5.52;74.64;99925.69;4497114;31;20548;-74
2021/12/17 12:26:46;;;;;;;3.50;1.80;;;;;;;5.50;74.23;99920.56;4491847;31;20096;-75
2021/12/17 12:29:23;;;;;;;5.75;2.17;;;;;;;5.48;74.10;99929.34;4492681;31;20490;-74
2021/12/17 12:32:12;;;;;;;8.45;2.33;;;;;;;5.36;74.68;99920.41;4494544;31;20107;-74
2021/12/17 12:34:41;;;;;;;5.87;1.62;;;;;;;5.42;74.83;99933.09;4491151;31;20095;-73
2021/12/17 12:37:08;;;;;;;4.30;1.42;;;;;;;5.44;74.84;99936.47;4487710;31;20119;-73
2021/12/17 12:39:44;;;;;;;9.65;2.28;;;;;;;5.46;75.46;99926.00;4487315;31;20083;-74
2021/12/17 12:42:22;;;;;;;4.30;1.80;;;;;;;5.56;74.38;99935.00;4490457;31;20096;-74
2021/12/17 12:44:49;;;;;;;6.00;2.60;;;;;;;5.50;74.78;99938.75;4492964;31;20472;-74
2021/12/17 12:47:19;;;;;;;7.35;2.10;;;;;;;5.48;74.23;99940.59;4494482;31;20806;-74
2021/12/17 12:49:54;;;;;;;4.15;2.22;;;;;;;5.40;74.47;99942.72;4496676;31;20110;-74
2021/12/17 12:52:26;;;;;;;4.97;2.08;;;;;;;5.38;73.65;99946.31;4491376;31;20170;-74
2021/12/17 12:54:57;;;;;;;6.60;2.50;;;;;;;5.42;75.71;99942.63;4498468;31;20175;-74
2021/12/17 12:57:35;;;;;;;7.28;2.20;;;;;;;5.39;75.15;99938.44;4495976;31;20762;-74
2021/12/17 13:00:10;;;;;;;4.57;2.08;;;;;;;5.41;75.41;99934.00;4495781;31;20080;-74
2021/12/17 13:02:38;;;;;;;5.57;2.37;;;;;;;5.40;74.73;99966.09;4494516;31;20129;-74
2021/12/17 13:05:07;;;;;;;2.62;1.70;;;;;;;5.28;75.09;99945.91;4493202;31;20149;-75
2021/12/17 13:08:07;;;;;;;7.00;2.62;;;;;;;5.30;75.43;99938.91;4492056;31;20104;-74
2021/12/17 13:10:38;;;;;;;7.22;2.75;;;;;;;5.32;75.39;99937.06;4453366;32;20108;-74
2021/12/17 13:13:11;;;;;;;7.37;2.12;;;;;;;5.28;75.82;99935.53;4458820;32;20124;-73
2021/12/17 13:21:47;;;;;;;9.27;1.87;;;;;;;5.22;74.70;99935.81;4453122;32;21201;-73
2021/12/17 13:24:19;;;;;;;5.05;2.20;;;;;;;5.29;74.97;99917.25;4450110;32;20132;-74
2021/12/17 13:26:53;;;;;;;5.22;1.85;;;;;;;5.31;75.26;99915.44;4439560;32;20127;-73
2021/12/17 13:29:32;;;;;;;5.40;2.03;;;;;;;5.27;74.33;99923.47;4430420;32;20102;-74
2021/12/17 13:32:12;;;;;;;8.27;2.50;;;;;;;5.19;74.71;99934.19;4450685;32;20123;-75
2021/12/17 13:34:47;;;;;;;6.90;2.20;;;;;;;5.15;74.79;99923.13;4451700;32;20096;-74
2021/12/17 13:37:24;;;;;;;5.80;1.80;;;;;;;5.15;75.04;99933.53;4458281;32;20184;-74
2021/12/17 13:39:56;;;;;;;2.90;1.98;;;;;;;5.04;75.81;99924.56;4458318;32;20174;-74
2021/12/17 13:42:37;;;;;;;4.55;2.22;;;;;;;5.04;75.74;99925.41;4457521;32;20162;-72
2021/12/17 13:45:09;;;;;;;4.40;2.12;;;;;;;4.92;75.74;99936.38;4455558;31;20093;-74
2021/12/17 13:47:42;;;;;;;3.85;1.73;;;;;;;4.92;76.05;99921.66;4490341;31;20127;-74
2021/12/17 13:50:23;;;;;;;4.45;2.35;;;;;;;4.90;75.53;99930.41;4490955;31;20123;-74
2021/12/17 13:53:03;;;;;;;5.50;2.20;;;;;;;4.88;76.05;99940.03;4494965;31;20115;-74
2021/12/17 13:55:43;;;;;;;4.60;2.25;;;;;;;4.78;75.36;99944.81;4490364;31;20518;-74
2021/12/17 13:58:13;;;;;;;7.28;2.97;;;;;;;4.84;75.12;99949.72;4496606;31;20144;-74
2021/12/17 14:00:43;;;;;;;5.32;2.30;;;;;;;4.83;75.62;99949.78;4497899;31;20096;-73
2021/12/17 14:03:13;;;;;;;5.10;2.10;;;;;;;4.72;75.87;99956.31;4498318;31;20119;-74
2021/12/17 14:06:01;;;;;;;6.25;2.05;;;;;;;4.76;75.39;99959.62;4498144;31;20116;-74
2021/12/17 14:08:28;;;;;;;5.35;2.33;;;;;;;4.87;75.49;99949.56;4498708;31;20520;-74
2021/12/17 14:10:56;;;;;;;3.70;2.22;;;;;;;4.72;75.71;99952.88;4499786;31;20441;-75
2021/12/17 14:13:27;;;;;;;5.90;2.40;;;;;;;4.73;76.34;99963.19;4500028;31;20087;-76
2021/12/17 14:16:03;;;;;;;11.43;2.42;;;;;;;4.75;75.61;99963.13;4500608;31;20096;-75
2021/12/17 14:18:31;;;;;;;8.50;2.03;;;;;;;4.72;75.75;99966.69;4500526;31;20144;-75
2021/12/17 14:21:03;;;;;;;6.85;2.25;;;;;;;4.70;75.89;99959.91;4500683;31;20096;-75
2021/12/17 14:23:32;;;;;;;14.23;5.75;;;;;;;4.73;75.51;99951.97;4499989;31;20103;-74
2021/12/17 14:26:01;;;;;;;20.67;5.87;;;;;;;4.68;75.85;99948.72;4499556;31;20508;-74
2021/12/17 14:28:30;;;;;;;6.60;3.10;;;;;;;4.54;76.64;99947.63;4495488;31;20080;-74
2021/12/17 14:31:04;;;;;;;8.60;4.55;;;;;;;4.42;76.84;99953.34;4499621;31;20097;-75
2021/12/17 14:33:33;;;;;;;4.53;1.85;;;;;;;4.38;77.38;99949.22;4497805;31;20100;-74
2021/12/17 14:36:17;;;;;;;9.10;2.65;;;;;;;4.41;76.98;99938.72;4498243;31;20169;-74
2021/12/17 14:38:59;;;;;;;7.37;2.40;;;;;;;4.25;78.17;99944.59;4485592;31;20186;-73
2021/12/17 14:41:38;;;;;;;11.15;3.10;;;;;;;4.17;78.27;99940.66;4494555;31;20167;-74
2021/12/17 14:47:20;;;;;;;3.95;1.98;;;;;;;3.98;79.39;99938.84;4430423;32;20113;-74
2021/12/17 15:03:41;;;;;;;5.00;2.95;;;;;;;3.64;81.12;99940.28;4433225;32;20097;-74
2021/12/17 15:06:13;;;;;;;3.50;1.30;;;;;;;3.47;82.07;99930.63;4426608;32;20102;-72
2021/12/17 15:08:42;;;;;;;4.60;2.22;;;;;;;3.47;82.01;99937.56;4417822;32;20116;-72
2021/12/17 15:11:27;;;;;;;9.90;2.20;;;;;;;3.38;82.57;99937.00;4425826;32;20587;-72
2021/12/17 15:13:54;;;;;;;8.32;3.15;;;;;;;3.29;82.82;99919.25;4423822;32;20113;-73
2021/12/17 15:16:23;;;;;;;7.32;2.12;;;;;;;3.26;83.36;99936.69;4419046;32;20171;-72
2021/12/17 15:18:50;;;;;;;4.85;2.20;;;;;;;3.29;83.22;99936.56;4419857;32;20167;-72
2021/12/17 15:21:17;;;;;;;6.68;2.83;;;;;;;3.25;83.31;99922.88;4418113;32;20563;-72
2021/12/17 15:23:44;;;;;;;3.80;2.47;;;;;;;3.15;83.95;99921.53;4445493;32;20480;-72
2021/12/17 15:26:13;;;;;;;9.73;3.05;;;;;;;3.16;83.82;99931.87;4481360;31;20171;-72